sensor_id;sensor_type;location;lat;lon;timestamp;temperature;humidity
4056;DHT22;2043;52.184;8.690;2023-07-13T00:01:32;19.10;90.70
4056;DHT22;2043;52.184;8.690;2023-07-13T00:03:59;19.10;90.80
4056;DHT22;2043;52.184;8.690;2023-07-13T00:06:26;19.00;90.90
4056;DHT22;2043;52.184;8.690;2023-07-13T00:08:56;18.90;90.70
4056;DHT22;2043;52.184;8.690;2023-07-13T00:11:23;18.80;91.10
4056;DHT22;2043;52.184;8.690;2023-07-13T00:13:51;18.80;91.10
4056;DHT22;2043;52.184;8.690;2023-07-13T00:16:17;18.70;91.30
4056;DHT22;2043;52.184;8.690;2023-07-13T00:18:46;18.70;91.60
4056;DHT22;2043;52.184;8.690;2023-07-13T00:21:13;18.60;91.70
4056;DHT22;2043;52.184;8.690;2023-07-13T00:23:42;18.60;91.70
4056;DHT22;2043;52.184;8.690;2023-07-13T00:26:10;18.50;91.70
4056;DHT22;2043;52.184;8.690;2023-07-13T00:28:39;18.40;92.10
4056;DHT22;2043;52.184;8.690;2023-07-13T00:31:10;18.30;92.50
4056;DHT22;2043;52.184;8.690;2023-07-13T00:33:37;18.20;92.60
4056;DHT22;2043;52.184;8.690;2023-07-13T00:36:04;18.20;92.50
4056;DHT22;2043;52.184;8.690;2023-07-13T00:38:31;18.00;93.10
4056;DHT22;2043;52.184;8.690;2023-07-13T00:40:58;18.00;93.30
4056;DHT22;2043;52.184;8.690;2023-07-13T00:43:27;18.00;93.30
4056;DHT22;2043;52.184;8.690;2023-07-13T00:46:31;17.90;93.60
4056;DHT22;2043;52.184;8.690;2023-07-13T00:49:05;17.80;93.70
4056;DHT22;2043;52.184;8.690;2023-07-13T00:52:03;17.90;93.60
4056;DHT22;2043;52.184;8.690;2023-07-13T00:54:40;17.90;93.30
4056;DHT22;2043;52.184;8.690;2023-07-13T00:57:19;18.00;93.20
4056;DHT22;2043;52.184;8.690;2023-07-13T00:59:59;18.10;93.20
4056;DHT22;2043;52.184;8.690;2023-07-13T01:02:35;18.20;92.80
4056;DHT22;2043;52.184;8.690;2023-07-13T01:07:38;18.30;92.30
4056;DHT22;2043;52.184;8.690;2023-07-13T01:10:05;18.30;92.10
4056;DHT22;2043;52.184;8.690;2023-07-13T01:12:32;18.20;92.30
4056;DHT22;2043;52.184;8.690;2023-07-13T01:15:00;18.10;92.70
4056;DHT22;2043;52.184;8.690;2023-07-13T01:17:28;17.90;93.30
4056;DHT22;2043;52.184;8.690;2023-07-13T01:19:56;17.80;93.40
4056;DHT22;2043;52.184;8.690;2023-07-13T01:22:23;17.80;93.60
4056;DHT22;2043;52.184;8.690;2023-07-13T01:24:53;17.80;93.50
4056;DHT22;2043;52.184;8.690;2023-07-13T01:27:23;17.90;93.40
4056;DHT22;2043;52.184;8.690;2023-07-13T01:30:10;17.90;93.30
4056;DHT22;2043;52.184;8.690;2023-07-13T01:32:38;17.90;93.50
4056;DHT22;2043;52.184;8.690;2023-07-13T01:35:08;17.90;93.40
4056;DHT22;2043;52.184;8.690;2023-07-13T01:37:35;17.90;93.30
4056;DHT22;2043;52.184;8.690;2023-07-13T01:40:04;18.00;93.30
4056;DHT22;2043;52.184;8.690;2023-07-13T01:42:31;18.00;93.30
4056;DHT22;2043;52.184;8.690;2023-07-13T01:44:58;18.10;93.00
4056;DHT22;2043;52.184;8.690;2023-07-13T01:47:24;18.10;92.90
4056;DHT22;2043;52.184;8.690;2023-07-13T01:49:52;18.00;92.90
4056;DHT22;2043;52.184;8.690;2023-07-13T01:52:19;18.00;93.00
4056;DHT22;2043;52.184;8.690;2023-07-13T01:54:46;18.00;92.90
4056;DHT22;2043;52.184;8.690;2023-07-13T01:57:33;18.10;92.50
4056;DHT22;2043;52.184;8.690;2023-07-13T02:00:03;18.20;92.70
4056;DHT22;2043;52.184;8.690;2023-07-13T02:02:31;18.20;92.30
4056;DHT22;2043;52.184;8.690;2023-07-13T02:04:58;18.20;92.50
4056;DHT22;2043;52.184;8.690;2023-07-13T02:07:25;18.30;92.60
4056;DHT22;2043;52.184;8.690;2023-07-13T02:09:52;18.20;92.70
4056;DHT22;2043;52.184;8.690;2023-07-13T02:17:13;17.90;93.60
4056;DHT22;2043;52.184;8.690;2023-07-13T02:19:40;17.80;93.70
4056;DHT22;2043;52.184;8.690;2023-07-13T02:22:07;17.90;93.70
4056;DHT22;2043;52.184;8.690;2023-07-13T02:24:34;17.90;93.80
4056;DHT22;2043;52.184;8.690;2023-07-13T02:27:00;17.80;94.00
4056;DHT22;2043;52.184;8.690;2023-07-13T02:29:27;17.80;94.10
4056;DHT22;2043;52.184;8.690;2023-07-13T02:34:21;17.90;93.60
4056;DHT22;2043;52.184;8.690;2023-07-13T02:36:48;17.90;93.50
4056;DHT22;2043;52.184;8.690;2023-07-13T02:39:15;17.80;93.80
4056;DHT22;2043;52.184;8.690;2023-07-13T02:41:42;17.80;94.00
4056;DHT22;2043;52.184;8.690;2023-07-13T02:44:08;17.90;93.70
4056;DHT22;2043;52.184;8.690;2023-07-13T02:46:37;17.80;93.80
4056;DHT22;2043;52.184;8.690;2023-07-13T02:49:04;17.80;94.40
4056;DHT22;2043;52.184;8.690;2023-07-13T02:51:31;17.80;94.20
4056;DHT22;2043;52.184;8.690;2023-07-13T02:54:04;17.80;94.20
4056;DHT22;2043;52.184;8.690;2023-07-13T02:56:31;17.60;94.60
4056;DHT22;2043;52.184;8.690;2023-07-13T02:58:58;17.60;94.80
4056;DHT22;2043;52.184;8.690;2023-07-13T03:01:25;17.60;94.80
4056;DHT22;2043;52.184;8.690;2023-07-13T03:03:52;17.60;94.90
4056;DHT22;2043;52.184;8.690;2023-07-13T03:06:19;17.50;94.80
4056;DHT22;2043;52.184;8.690;2023-07-13T03:08:47;17.50;95.00
4056;DHT22;2043;52.184;8.690;2023-07-13T03:11:18;17.50;95.00
4056;DHT22;2043;52.184;8.690;2023-07-13T03:13:45;17.50;95.10
4056;DHT22;2043;52.184;8.690;2023-07-13T03:16:12;17.40;95.30
4056;DHT22;2043;52.184;8.690;2023-07-13T03:18:46;17.30;95.60
4056;DHT22;2043;52.184;8.690;2023-07-13T03:21:13;17.20;95.90
4056;DHT22;2043;52.184;8.690;2023-07-13T03:23:40;17.30;95.70
4056;DHT22;2043;52.184;8.690;2023-07-13T03:26:12;17.30;95.80
4056;DHT22;2043;52.184;8.690;2023-07-13T03:28:40;17.30;95.70
4056;DHT22;2043;52.184;8.690;2023-07-13T03:31:19;17.30;95.80
4056;DHT22;2043;52.184;8.690;2023-07-13T03:33:47;17.30;95.70
4056;DHT22;2043;52.184;8.690;2023-07-13T03:36:18;17.20;96.10
4056;DHT22;2043;52.184;8.690;2023-07-13T03:39:04;17.20;95.90
4056;DHT22;2043;52.184;8.690;2023-07-13T03:44:00;17.20;95.70
4056;DHT22;2043;52.184;8.690;2023-07-13T03:46:26;17.30;95.40
4056;DHT22;2043;52.184;8.690;2023-07-13T03:48:53;17.20;95.30
4056;DHT22;2043;52.184;8.690;2023-07-13T03:51:20;17.20;95.90
4056;DHT22;2043;52.184;8.690;2023-07-13T03:53:48;17.30;95.60
4056;DHT22;2043;52.184;8.690;2023-07-13T03:56:16;17.30;95.60
4056;DHT22;2043;52.184;8.690;2023-07-13T03:58:48;17.10;95.80
4056;DHT22;2043;52.184;8.690;2023-07-13T04:01:16;17.00;96.30
4056;DHT22;2043;52.184;8.690;2023-07-13T04:03:44;17.10;96.10
4056;DHT22;2043;52.184;8.690;2023-07-13T04:06:19;17.20;95.80
4056;DHT22;2043;52.184;8.690;2023-07-13T04:08:56;17.20;95.90
4056;DHT22;2043;52.184;8.690;2023-07-13T04:11:26;17.10;95.80
4056;DHT22;2043;52.184;8.690;2023-07-13T04:13:53;17.00;96.00
4056;DHT22;2043;52.184;8.690;2023-07-13T04:16:21;17.00;96.30
4056;DHT22;2043;52.184;8.690;2023-07-13T04:18:48;17.10;96.20
4056;DHT22;2043;52.184;8.690;2023-07-13T04:21:16;17.30;95.80
4056;DHT22;2043;52.184;8.690;2023-07-13T04:23:43;17.30;95.60
4056;DHT22;2043;52.184;8.690;2023-07-13T04:28:38;17.50;95.50
4056;DHT22;2043;52.184;8.690;2023-07-13T04:31:05;17.50;95.70
4056;DHT22;2043;52.184;8.690;2023-07-13T04:33:32;17.40;96.10
4056;DHT22;2043;52.184;8.690;2023-07-13T04:35:59;17.50;95.80
4056;DHT22;2043;52.184;8.690;2023-07-13T04:38:28;17.50;95.80
4056;DHT22;2043;52.184;8.690;2023-07-13T04:40:57;17.60;95.60
4056;DHT22;2043;52.184;8.690;2023-07-13T04:43:25;17.70;95.60
4056;DHT22;2043;52.184;8.690;2023-07-13T04:45:53;17.80;95.30
4056;DHT22;2043;52.184;8.690;2023-07-13T04:48:20;17.70;95.40
4056;DHT22;2043;52.184;8.690;2023-07-13T04:50:53;17.70;95.80
4056;DHT22;2043;52.184;8.690;2023-07-13T04:53:20;17.40;96.00
4056;DHT22;2043;52.184;8.690;2023-07-13T04:58:14;17.30;95.50
4056;DHT22;2043;52.184;8.690;2023-07-13T05:00:41;17.40;95.30
4056;DHT22;2043;52.184;8.690;2023-07-13T05:03:08;17.50;93.90
4056;DHT22;2043;52.184;8.690;2023-07-13T05:05:35;17.60;93.50
4056;DHT22;2043;52.184;8.690;2023-07-13T05:10:29;17.90;92.70
4056;DHT22;2043;52.184;8.690;2023-07-13T05:12:56;17.90;92.10
4056;DHT22;2043;52.184;8.690;2023-07-13T05:15:23;17.80;92.00
4056;DHT22;2043;52.184;8.690;2023-07-13T05:17:50;17.80;92.10
4056;DHT22;2043;52.184;8.690;2023-07-13T05:20:18;17.90;92.00
4056;DHT22;2043;52.184;8.690;2023-07-13T05:22:45;17.90;91.90
4056;DHT22;2043;52.184;8.690;2023-07-13T05:25:15;18.00;91.30
4056;DHT22;2043;52.184;8.690;2023-07-13T05:27:42;18.10;91.10
4056;DHT22;2043;52.184;8.690;2023-07-13T05:30:12;18.10;91.20
4056;DHT22;2043;52.184;8.690;2023-07-13T05:32:39;17.90;90.70
4056;DHT22;2043;52.184;8.690;2023-07-13T05:35:06;17.80;91.20
4056;DHT22;2043;52.184;8.690;2023-07-13T05:37:34;17.90;91.30
4056;DHT22;2043;52.184;8.690;2023-07-13T05:40:00;18.00;90.60
4056;DHT22;2043;52.184;8.690;2023-07-13T05:42:27;18.20;90.30
4056;DHT22;2043;52.184;8.690;2023-07-13T05:44:54;18.20;90.00
4056;DHT22;2043;52.184;8.690;2023-07-13T05:47:22;18.30;89.90
4056;DHT22;2043;52.184;8.690;2023-07-13T05:49:49;18.20;90.20
4056;DHT22;2043;52.184;8.690;2023-07-13T05:52:15;18.40;90.00
4056;DHT22;2043;52.184;8.690;2023-07-13T05:54:42;18.50;89.30
4056;DHT22;2043;52.184;8.690;2023-07-13T05:57:09;18.50;89.70
4056;DHT22;2043;52.184;8.690;2023-07-13T05:59:36;18.40;89.60
4056;DHT22;2043;52.184;8.690;2023-07-13T06:02:03;18.50;90.00
4056;DHT22;2043;52.184;8.690;2023-07-13T06:04:30;18.70;89.60
4056;DHT22;2043;52.184;8.690;2023-07-13T06:06:57;18.50;89.40
4056;DHT22;2043;52.184;8.690;2023-07-13T06:09:23;18.30;90.50
4056;DHT22;2043;52.184;8.690;2023-07-13T06:11:50;18.50;90.10
4056;DHT22;2043;52.184;8.690;2023-07-13T06:14:17;18.60;90.10
4056;DHT22;2043;52.184;8.690;2023-07-13T06:16:44;18.60;90.40
4056;DHT22;2043;52.184;8.690;2023-07-13T06:19:12;18.90;90.00
4056;DHT22;2043;52.184;8.690;2023-07-13T06:21:39;19.10;89.00
4056;DHT22;2043;52.184;8.690;2023-07-13T06:24:05;18.90;89.20
4056;DHT22;2043;52.184;8.690;2023-07-13T06:26:32;18.90;89.30
4056;DHT22;2043;52.184;8.690;2023-07-13T06:28:59;18.90;89.50
4056;DHT22;2043;52.184;8.690;2023-07-13T06:31:26;19.30;88.40
4056;DHT22;2043;52.184;8.690;2023-07-13T06:36:20;19.50;88.40
4056;DHT22;2043;52.184;8.690;2023-07-13T06:38:46;19.30;88.70
4056;DHT22;2043;52.184;8.690;2023-07-13T06:41:13;19.40;88.70
4056;DHT22;2043;52.184;8.690;2023-07-13T06:46:08;19.80;88.10
4056;DHT22;2043;52.184;8.690;2023-07-13T06:51:02;19.70;88.60
4056;DHT22;2043;52.184;8.690;2023-07-13T06:55:56;19.70;88.60
4056;DHT22;2043;52.184;8.690;2023-07-13T06:58:23;19.60;88.80
4056;DHT22;2043;52.184;8.690;2023-07-13T07:00:52;19.30;89.30
4056;DHT22;2043;52.184;8.690;2023-07-13T07:03:19;19.30;89.60
4056;DHT22;2043;52.184;8.690;2023-07-13T07:05:46;19.80;89.30
4056;DHT22;2043;52.184;8.690;2023-07-13T07:08:13;19.80;89.00
4056;DHT22;2043;52.184;8.690;2023-07-13T07:10:40;20.10;88.20
4056;DHT22;2043;52.184;8.690;2023-07-13T07:13:07;20.20;88.60
4056;DHT22;2043;52.184;8.690;2023-07-13T07:15:35;20.40;87.80
4056;DHT22;2043;52.184;8.690;2023-07-13T07:18:02;20.20;88.00
4056;DHT22;2043;52.184;8.690;2023-07-13T07:20:29;20.20;88.20
4056;DHT22;2043;52.184;8.690;2023-07-13T07:22:57;19.90;89.40
4056;DHT22;2043;52.184;8.690;2023-07-13T07:25:24;19.90;89.60
4056;DHT22;2043;52.184;8.690;2023-07-13T07:27:51;20.50;88.50
4056;DHT22;2043;52.184;8.690;2023-07-13T07:30:20;20.60;88.20
4056;DHT22;2043;52.184;8.690;2023-07-13T07:32:50;20.60;88.00
4056;DHT22;2043;52.184;8.690;2023-07-13T07:35:20;21.00;87.20
4056;DHT22;2043;52.184;8.690;2023-07-13T07:37:47;21.00;87.20
4056;DHT22;2043;52.184;8.690;2023-07-13T07:40:17;21.10;86.70
4056;DHT22;2043;52.184;8.690;2023-07-13T07:42:47;20.90;87.10
4056;DHT22;2043;52.184;8.690;2023-07-13T07:45:15;20.80;87.60
4056;DHT22;2043;52.184;8.690;2023-07-13T07:47:41;20.80;87.70
4056;DHT22;2043;52.184;8.690;2023-07-13T07:50:09;20.70;87.40
4056;DHT22;2043;52.184;8.690;2023-07-13T07:52:36;20.40;87.90
4056;DHT22;2043;52.184;8.690;2023-07-13T07:55:05;20.40;87.90
4056;DHT22;2043;52.184;8.690;2023-07-13T07:57:35;20.40;88.10
4056;DHT22;2043;52.184;8.690;2023-07-13T08:00:05;20.50;88.10
4056;DHT22;2043;52.184;8.690;2023-07-13T08:02:35;20.50;87.80
4056;DHT22;2043;52.184;8.690;2023-07-13T08:05:05;21.00;87.60
4056;DHT22;2043;52.184;8.690;2023-07-13T08:07:38;21.40;86.30
4056;DHT22;2043;52.184;8.690;2023-07-13T08:10:06;21.50;86.00
4056;DHT22;2043;52.184;8.690;2023-07-13T08:12:37;21.30;86.20
4056;DHT22;2043;52.184;8.690;2023-07-13T08:15:11;21.70;84.90
4056;DHT22;2043;52.184;8.690;2023-07-13T08:17:39;21.70;84.90
4056;DHT22;2043;52.184;8.690;2023-07-13T08:20:06;21.40;84.80
4056;DHT22;2043;52.184;8.690;2023-07-13T08:22:33;20.90;85.90
4056;DHT22;2043;52.184;8.690;2023-07-13T08:27:31;21.20;85.70
4056;DHT22;2043;52.184;8.690;2023-07-13T08:29:58;21.20;86.10
4056;DHT22;2043;52.184;8.690;2023-07-13T08:32:25;21.40;85.50
4056;DHT22;2043;52.184;8.690;2023-07-13T08:34:52;21.20;85.10
4056;DHT22;2043;52.184;8.690;2023-07-13T08:37:19;21.50;84.80
4056;DHT22;2043;52.184;8.690;2023-07-13T08:39:46;21.90;84.30
4056;DHT22;2043;52.184;8.690;2023-07-13T08:47:46;22.70;81.20
4056;DHT22;2043;52.184;8.690;2023-07-13T08:50:18;22.70;81.20
4056;DHT22;2043;52.184;8.690;2023-07-13T08:52:46;22.50;81.70
4056;DHT22;2043;52.184;8.690;2023-07-13T08:57:43;23.00;81.40
4056;DHT22;2043;52.184;8.690;2023-07-13T09:00:12;23.10;80.80
4056;DHT22;2043;52.184;8.690;2023-07-13T09:02:51;23.10;80.80
4056;DHT22;2043;52.184;8.690;2023-07-13T09:05:40;23.30;80.10
4056;DHT22;2043;52.184;8.690;2023-07-13T09:11:04;23.00;78.60
4056;DHT22;2043;52.184;8.690;2023-07-13T09:13:59;22.80;80.60
4056;DHT22;2043;52.184;8.690;2023-07-13T09:19:05;22.50;81.40
4056;DHT22;2043;52.184;8.690;2023-07-13T09:21:38;22.80;81.50
4056;DHT22;2043;52.184;8.690;2023-07-13T09:27:08;22.90;79.40
4056;DHT22;2043;52.184;8.690;2023-07-13T09:29:42;23.30;79.30
4056;DHT22;2043;52.184;8.690;2023-07-13T09:32:13;23.50;77.50
4056;DHT22;2043;52.184;8.690;2023-07-13T09:34:41;23.40;77.80
4056;DHT22;2043;52.184;8.690;2023-07-13T09:37:08;23.30;77.80
4056;DHT22;2043;52.184;8.690;2023-07-13T09:39:38;23.40;76.90
4056;DHT22;2043;52.184;8.690;2023-07-13T09:42:17;23.40;77.30
4056;DHT22;2043;52.184;8.690;2023-07-13T09:47:19;23.60;76.90
4056;DHT22;2043;52.184;8.690;2023-07-13T09:49:55;23.30;77.70
4056;DHT22;2043;52.184;8.690;2023-07-13T09:52:26;23.60;77.90
4056;DHT22;2043;52.184;8.690;2023-07-13T09:54:55;23.80;76.40
4056;DHT22;2043;52.184;8.690;2023-07-13T09:57:27;23.80;76.40
4056;DHT22;2043;52.184;8.690;2023-07-13T10:00:21;24.00;76.60
4056;DHT22;2043;52.184;8.690;2023-07-13T10:03:17;24.60;75.00
4056;DHT22;2043;52.184;8.690;2023-07-13T10:05:46;24.50;75.20
4056;DHT22;2043;52.184;8.690;2023-07-13T10:10:58;24.60;73.80
4056;DHT22;2043;52.184;8.690;2023-07-13T10:13:37;23.60;75.80
4056;DHT22;2043;52.184;8.690;2023-07-13T10:16:07;23.40;77.80
4056;DHT22;2043;52.184;8.690;2023-07-13T10:18:40;23.70;76.90
4056;DHT22;2043;52.184;8.690;2023-07-13T10:21:14;24.10;76.10
4056;DHT22;2043;52.184;8.690;2023-07-13T10:23:55;24.10;75.20
4056;DHT22;2043;52.184;8.690;2023-07-13T10:30:17;24.10;76.00
4056;DHT22;2043;52.184;8.690;2023-07-13T10:32:47;24.10;74.50
4056;DHT22;2043;52.184;8.690;2023-07-13T10:35:16;23.70;75.90
4056;DHT22;2043;52.184;8.690;2023-07-13T10:37:52;24.00;75.70
4056;DHT22;2043;52.184;8.690;2023-07-13T10:40:34;24.20;75.20
4056;DHT22;2043;52.184;8.690;2023-07-13T10:43:09;24.30;76.10
4056;DHT22;2043;52.184;8.690;2023-07-13T10:45:39;24.50;75.40
4056;DHT22;2043;52.184;8.690;2023-07-13T10:48:11;24.30;75.40
4056;DHT22;2043;52.184;8.690;2023-07-13T10:50:44;24.30;75.40
4056;DHT22;2043;52.184;8.690;2023-07-13T10:53:27;24.10;76.00
4056;DHT22;2043;52.184;8.690;2023-07-13T10:55:58;24.00;76.50
4056;DHT22;2043;52.184;8.690;2023-07-13T10:59:01;23.70;76.10
4056;DHT22;2043;52.184;8.690;2023-07-13T11:01:39;23.80;76.40
4056;DHT22;2043;52.184;8.690;2023-07-13T11:04:11;24.30;75.10
4056;DHT22;2043;52.184;8.690;2023-07-13T11:06:40;25.40;74.30
4056;DHT22;2043;52.184;8.690;2023-07-13T11:11:44;25.60;73.00
4056;DHT22;2043;52.184;8.690;2023-07-13T11:14:30;24.30;74.70
4056;DHT22;2043;52.184;8.690;2023-07-13T11:19:29;24.40;75.60
4056;DHT22;2043;52.184;8.690;2023-07-13T11:24:51;25.00;72.70
4056;DHT22;2043;52.184;8.690;2023-07-13T11:35:57;24.50;74.20
4056;DHT22;2043;52.184;8.690;2023-07-13T11:38:36;24.40;74.30
4056;DHT22;2043;52.184;8.690;2023-07-13T11:41:23;24.10;75.40
4056;DHT22;2043;52.184;8.690;2023-07-13T11:44:12;24.00;75.50
4056;DHT22;2043;52.184;8.690;2023-07-13T11:49:07;24.60;75.10
4056;DHT22;2043;52.184;8.690;2023-07-13T11:51:35;24.70;75.00
4056;DHT22;2043;52.184;8.690;2023-07-13T11:54:06;24.90;74.20
4056;DHT22;2043;52.184;8.690;2023-07-13T11:56:34;24.90;74.10
4056;DHT22;2043;52.184;8.690;2023-07-13T11:59:07;24.50;74.10
4056;DHT22;2043;52.184;8.690;2023-07-13T12:01:48;24.50;75.10
4056;DHT22;2043;52.184;8.690;2023-07-13T12:04:23;24.40;75.30
4056;DHT22;2043;52.184;8.690;2023-07-13T12:07:04;24.20;75.70
4056;DHT22;2043;52.184;8.690;2023-07-13T12:09:33;24.00;75.50
4056;DHT22;2043;52.184;8.690;2023-07-13T12:12:00;24.00;76.00
4056;DHT22;2043;52.184;8.690;2023-07-13T12:14:27;24.30;75.30
4056;DHT22;2043;52.184;8.690;2023-07-13T12:16:54;24.60;75.20
4056;DHT22;2043;52.184;8.690;2023-07-13T12:19:25;24.80;73.70
4056;DHT22;2043;52.184;8.690;2023-07-13T12:21:56;24.60;74.20
4056;DHT22;2043;52.184;8.690;2023-07-13T12:24:25;25.20;73.10
4056;DHT22;2043;52.184;8.690;2023-07-13T12:27:00;25.20;73.10
4056;DHT22;2043;52.184;8.690;2023-07-13T12:29:28;25.00;72.60
4056;DHT22;2043;52.184;8.690;2023-07-13T12:31:54;25.30;72.70
4056;DHT22;2043;52.184;8.690;2023-07-13T12:34:24;25.80;70.70
4056;DHT22;2043;52.184;8.690;2023-07-13T12:39:37;25.90;70.00
4056;DHT22;2043;52.184;8.690;2023-07-13T12:44:43;25.30;71.60
4056;DHT22;2043;52.184;8.690;2023-07-13T12:47:13;25.10;72.10
4056;DHT22;2043;52.184;8.690;2023-07-13T12:49:42;25.20;71.70
4056;DHT22;2043;52.184;8.690;2023-07-13T12:52:22;25.30;71.40
4056;DHT22;2043;52.184;8.690;2023-07-13T12:54:57;25.50;71.90
4056;DHT22;2043;52.184;8.690;2023-07-13T12:57:38;25.80;70.90
4056;DHT22;2043;52.184;8.690;2023-07-13T13:02:50;25.00;71.10
4056;DHT22;2043;52.184;8.690;2023-07-13T13:05:18;25.20;71.50
4056;DHT22;2043;52.184;8.690;2023-07-13T13:07:50;25.50;70.00
4056;DHT22;2043;52.184;8.690;2023-07-13T13:10:17;25.50;70.00
4056;DHT22;2043;52.184;8.690;2023-07-13T13:12:43;25.80;70.30
4056;DHT22;2043;52.184;8.690;2023-07-13T13:15:13;25.90;70.40
4056;DHT22;2043;52.184;8.690;2023-07-13T13:20:19;26.10;67.40
4056;DHT22;2043;52.184;8.690;2023-07-13T13:25:14;25.70;69.40
4056;DHT22;2043;52.184;8.690;2023-07-13T13:27:42;25.70;69.40
4056;DHT22;2043;52.184;8.690;2023-07-13T13:30:14;25.80;68.80
4056;DHT22;2043;52.184;8.690;2023-07-13T13:32:44;25.60;69.60
4056;DHT22;2043;52.184;8.690;2023-07-13T13:35:16;25.50;70.20
4056;DHT22;2043;52.184;8.690;2023-07-13T13:37:44;25.00;72.80
4056;DHT22;2043;52.184;8.690;2023-07-13T13:40:21;24.10;75.10
4056;DHT22;2043;52.184;8.690;2023-07-13T13:47:47;22.00;79.10
4056;DHT22;2043;52.184;8.690;2023-07-13T13:50:20;21.60;81.60
4056;DHT22;2043;52.184;8.690;2023-07-13T13:52:49;21.50;81.60
4056;DHT22;2043;52.184;8.690;2023-07-13T13:55:18;20.80;84.30
4056;DHT22;2043;52.184;8.690;2023-07-13T13:57:46;20.80;84.30
4056;DHT22;2043;52.184;8.690;2023-07-13T14:00:14;20.80;85.20
4056;DHT22;2043;52.184;8.690;2023-07-13T14:02:44;20.50;89.60
4056;DHT22;2043;52.184;8.690;2023-07-13T14:05:16;19.80;98.60
4056;DHT22;2043;52.184;8.690;2023-07-13T14:07:44;19.80;97.90
4056;DHT22;2043;52.184;8.690;2023-07-13T14:10:14;19.60;99.90
4056;DHT22;2043;52.184;8.690;2023-07-13T14:12:43;19.40;99.80
4056;DHT22;2043;52.184;8.690;2023-07-13T14:15:27;19.50;99.80
4056;DHT22;2043;52.184;8.690;2023-07-13T14:17:54;19.30;97.70
4056;DHT22;2043;52.184;8.690;2023-07-13T14:20:23;19.30;98.60
4056;DHT22;2043;52.184;8.690;2023-07-13T14:22:52;19.60;98.60
4056;DHT22;2043;52.184;8.690;2023-07-13T14:25:20;19.80;96.20
4056;DHT22;2043;52.184;8.690;2023-07-13T14:27:51;19.80;96.10
4056;DHT22;2043;52.184;8.690;2023-07-13T14:30:21;19.60;96.30
4056;DHT22;2043;52.184;8.690;2023-07-13T14:32:48;19.40;97.30
4056;DHT22;2043;52.184;8.690;2023-07-13T14:35:21;19.50;95.70
4056;DHT22;2043;52.184;8.690;2023-07-13T14:37:50;19.80;96.80
4056;DHT22;2043;52.184;8.690;2023-07-13T14:40:21;19.90;96.30
4056;DHT22;2043;52.184;8.690;2023-07-13T14:42:49;20.10;94.40
4056;DHT22;2043;52.184;8.690;2023-07-13T14:45:18;20.20;94.80
4056;DHT22;2043;52.184;8.690;2023-07-13T14:47:46;20.30;95.40
4056;DHT22;2043;52.184;8.690;2023-07-13T14:50:19;20.50;94.20
4056;DHT22;2043;52.184;8.690;2023-07-13T14:52:47;20.30;94.20
4056;DHT22;2043;52.184;8.690;2023-07-13T14:55:16;20.20;94.60
4056;DHT22;2043;52.184;8.690;2023-07-13T14:57:43;19.60;97.60
4056;DHT22;2043;52.184;8.690;2023-07-13T15:02:53;19.30;98.90
4056;DHT22;2043;52.184;8.690;2023-07-13T15:05:24;19.20;99.00
4056;DHT22;2043;52.184;8.690;2023-07-13T15:07:53;19.20;98.80
4056;DHT22;2043;52.184;8.690;2023-07-13T15:10:22;19.10;99.70
4056;DHT22;2043;52.184;8.690;2023-07-13T15:12:56;18.90;99.90
4056;DHT22;2043;52.184;8.690;2023-07-13T15:15:23;19.00;99.90
4056;DHT22;2043;52.184;8.690;2023-07-13T15:17:50;19.10;99.90
4056;DHT22;2043;52.184;8.690;2023-07-13T15:20:29;19.10;99.90
4056;DHT22;2043;52.184;8.690;2023-07-13T15:23:00;19.00;99.30
4056;DHT22;2043;52.184;8.690;2023-07-13T15:25:29;18.70;99.90
4056;DHT22;2043;52.184;8.690;2023-07-13T15:27:57;18.70;99.90
4056;DHT22;2043;52.184;8.690;2023-07-13T15:30:44;18.60;99.90
4056;DHT22;2043;52.184;8.690;2023-07-13T15:33:26;18.60;99.90
4056;DHT22;2043;52.184;8.690;2023-07-13T15:35:54;18.40;99.90
4056;DHT22;2043;52.184;8.690;2023-07-13T15:38:24;18.40;99.90
4056;DHT22;2043;52.184;8.690;2023-07-13T15:40:52;18.40;99.90
4056;DHT22;2043;52.184;8.690;2023-07-13T15:43:20;18.50;99.90
4056;DHT22;2043;52.184;8.690;2023-07-13T15:45:47;18.40;99.90
4056;DHT22;2043;52.184;8.690;2023-07-13T15:48:18;18.30;99.80
4056;DHT22;2043;52.184;8.690;2023-07-13T15:53:23;18.30;99.90
4056;DHT22;2043;52.184;8.690;2023-07-13T15:55:51;18.40;99.90
4056;DHT22;2043;52.184;8.690;2023-07-13T15:58:18;18.40;99.90
4056;DHT22;2043;52.184;8.690;2023-07-13T16:03:19;18.50;99.90
4056;DHT22;2043;52.184;8.690;2023-07-13T16:05:46;18.40;99.80
4056;DHT22;2043;52.184;8.690;2023-07-13T16:08:32;18.20;99.60
4056;DHT22;2043;52.184;8.690;2023-07-13T16:11:02;18.40;99.90
4056;DHT22;2043;52.184;8.690;2023-07-13T16:13:29;18.60;99.90
4056;DHT22;2043;52.184;8.690;2023-07-13T16:15:56;18.70;99.10
4056;DHT22;2043;52.184;8.690;2023-07-13T16:18:24;18.80;99.30
4056;DHT22;2043;52.184;8.690;2023-07-13T16:20:51;19.00;98.70
4056;DHT22;2043;52.184;8.690;2023-07-13T16:23:20;19.10;98.30
4056;DHT22;2043;52.184;8.690;2023-07-13T16:25:48;19.10;98.20
4056;DHT22;2043;52.184;8.690;2023-07-13T16:28:15;19.30;97.50
4056;DHT22;2043;52.184;8.690;2023-07-13T16:30:42;19.30;98.20
4056;DHT22;2043;52.184;8.690;2023-07-13T16:33:09;19.50;98.00
4056;DHT22;2043;52.184;8.690;2023-07-13T16:35:39;19.60;96.50
4056;DHT22;2043;52.184;8.690;2023-07-13T16:38:20;19.50;95.50
4056;DHT22;2043;52.184;8.690;2023-07-13T16:40:47;19.50;96.60
4056;DHT22;2043;52.184;8.690;2023-07-13T16:43:16;19.70;95.40
4056;DHT22;2043;52.184;8.690;2023-07-13T16:45:48;19.80;95.30
4056;DHT22;2043;52.184;8.690;2023-07-13T16:48:19;20.20;95.70
4056;DHT22;2043;52.184;8.690;2023-07-13T16:50:52;20.20;95.80
4056;DHT22;2043;52.184;8.690;2023-07-13T16:53:22;20.40;94.70
4056;DHT22;2043;52.184;8.690;2023-07-13T16:55:50;20.10;93.30
4056;DHT22;2043;52.184;8.690;2023-07-13T16:58:17;19.90;94.90
4056;DHT22;2043;52.184;8.690;2023-07-13T17:00:47;19.90;95.70
4056;DHT22;2043;52.184;8.690;2023-07-13T17:03:18;19.90;95.70
4056;DHT22;2043;52.184;8.690;2023-07-13T17:05:46;19.80;95.70
4056;DHT22;2043;52.184;8.690;2023-07-13T17:10:59;19.60;95.40
4056;DHT22;2043;52.184;8.690;2023-07-13T17:13:27;19.70;96.20
4056;DHT22;2043;52.184;8.690;2023-07-13T17:15:55;19.90;95.60
4056;DHT22;2043;52.184;8.690;2023-07-13T17:18:28;20.10;94.80
4056;DHT22;2043;52.184;8.690;2023-07-13T17:21:07;20.20;94.40
4056;DHT22;2043;52.184;8.690;2023-07-13T17:23:34;20.40;93.70
4056;DHT22;2043;52.184;8.690;2023-07-13T17:26:01;20.80;92.50
4056;DHT22;2043;52.184;8.690;2023-07-13T17:30:57;20.90;93.10
4056;DHT22;2043;52.184;8.690;2023-07-13T17:33:38;20.40;93.30
4056;DHT22;2043;52.184;8.690;2023-07-13T17:36:11;20.40;93.10
4056;DHT22;2043;52.184;8.690;2023-07-13T17:38:45;20.10;93.70
4056;DHT22;2043;52.184;8.690;2023-07-13T17:41:13;20.10;93.70
4056;DHT22;2043;52.184;8.690;2023-07-13T17:43:44;20.10;94.20
4056;DHT22;2043;52.184;8.690;2023-07-13T17:49:22;19.90;94.20
4056;DHT22;2043;52.184;8.690;2023-07-13T17:51:58;19.90;94.40
4056;DHT22;2043;52.184;8.690;2023-07-13T17:54:26;19.90;94.70
4056;DHT22;2043;52.184;8.690;2023-07-13T17:56:54;19.80;94.50
4056;DHT22;2043;52.184;8.690;2023-07-13T17:59:21;19.70;94.60
4056;DHT22;2043;52.184;8.690;2023-07-13T18:01:49;19.70;95.00
4056;DHT22;2043;52.184;8.690;2023-07-13T18:04:17;19.70;94.80
4056;DHT22;2043;52.184;8.690;2023-07-13T18:06:49;19.60;94.90
4056;DHT22;2043;52.184;8.690;2023-07-13T18:09:23;19.50;94.80
4056;DHT22;2043;52.184;8.690;2023-07-13T18:11:53;19.40;96.00